Time;durP1;ratioP1;P1;durP2;ratioP2;P2;SDS_P1;SDS_P2;PMS_P1;PMS_P2;Temp;Humidity;BMP_temperature;BMP_pressure;BME280_temperature;BME280_humidity;BME280_pressure;Samples;Min_cycle;Max_cycle;Signal;HPM_P1;HPM_P2
2021/11/02 00:00:34;;;;;;;4.20;3.80;;;13.50;62.00;;;;;;5054440;28;20791;-51
2021/11/02 00:03:00;;;;;;;4.53;3.73;;;13.50;62.10;;;;;;5054537;28;20941;-49
2021/11/02 00:05:26;;;;;;;7.70;3.90;;;13.60;62.60;;;;;;5054490;28;20423;-52
2021/11/02 00:07:52;;;;;;;4.67;2.87;;;13.70;61.70;;;;;;5054537;28;20705;-52
2021/11/02 00:10:17;;;;;;;4.50;3.00;;;13.50;61.70;;;;;;5054310;28;20574;-51
2021/11/02 00:12:43;;;;;;;3.60;3.30;;;13.20;62.50;;;;;;5054532;28;20222;-49
2021/11/02 00:15:09;;;;;;;3.30;3.00;;;13.10;63.20;;;;;;5054253;28;20272;-49
2021/11/02 00:17:38;;;;;;;3.13;2.83;;;13.20;63.20;;;;;;5054469;28;20201;-51
2021/11/02 00:20:08;;;;;;;2.80;2.60;;;13.10;63.10;;;;;;5052546;28;20872;-52
2021/11/02 00:22:35;;;;;;;3.33;3.03;;;13.20;63.10;;;;;;5054803;28;20431;-49
2021/11/02 00:25:04;;;;;;;4.00;2.80;;;13.10;63.40;;;;;;5053582;28;20435;-49
2021/11/02 00:27:40;;;;;;;4.23;3.00;;;13.30;63.30;;;;;;5054533;28;20530;-48
2021/11/02 00:30:11;;;;;;;2.83;2.63;;;13.50;62.90;;;;;;5053642;28;21003;-50
2021/11/02 00:32:37;;;;;;;3.00;2.80;;;13.60;62.50;;;;;;5054299;28;20426;-51
2021/11/02 00:35:05;;;;;;;5.27;3.80;;;13.70;62.10;;;;;;5053233;28;20898;-52
2021/11/02 00:37:31;;;;;;;4.83;3.57;;;13.60;61.80;;;;;;5054620;28;20466;-50
2021/11/02 00:39:56;;;;;;;3.40;3.10;;;13.70;61.80;;;;;;5049568;28;20436;-52
2021/11/02 00:42:32;;;;;;;4.27;3.40;;;13.60;61.70;;;;;;5054058;28;20930;-52
2021/11/02 00:45:01;;;;;;;4.53;3.90;;;13.60;61.80;;;;;;5052569;28;20210;-52
2021/11/02 00:47:27;;;;;;;4.60;4.20;;;13.50;61.40;;;;;;5053871;28;20438;-48
2021/11/02 00:49:53;;;;;;;3.20;3.00;;;13.40;62.10;;;;;;5053394;28;20891;-49
2021/11/02 00:52:19;;;;;;;3.77;3.47;;;13.30;62.40;;;;;;5054302;28;20428;-53
2021/11/02 00:54:45;;;;;;;3.80;3.40;;;13.20;63.30;;;;;;5053038;28;20449;-48
2021/11/02 00:57:11;;;;;;;3.23;3.03;;;13.20;63.40;;;;;;5053605;28;20427;-48
2021/11/02 00:59:37;;;;;;;3.93;3.57;;;13.20;62.90;;;;;;5053552;28;20200;-52
2021/11/02 01:02:07;;;;;;;3.73;3.23;;;13.20;63.20;;;;;;5053742;28;20195;-52
2021/11/02 01:04:32;;;;;;;3.60;3.10;;;13.30;63.10;;;;;;5053612;28;20188;-51
2021/11/02 01:06:58;;;;;;;3.23;2.93;;;13.30;62.90;;;;;;5053716;28;20855;-48
2021/11/02 01:09:24;;;;;;;5.03;3.03;;;13.30;63.10;;;;;;5053631;28;20197;-52
2021/11/02 01:11:49;;;;;;;7.73;3.87;;;13.20;63.40;;;;;;5050582;28;20188;-53
2021/11/02 01:14:15;;;;;;;4.90;3.40;;;13.20;63.50;;;;;;5053367;28;20206;-53
2021/11/02 01:16:41;;;;;;;2.90;2.70;;;13.30;63.10;;;;;;5053192;28;20220;-48
2021/11/02 01:19:06;;;;;;;4.37;2.67;;;13.30;62.80;;;;;;5053139;28;20962;-49
2021/11/02 01:21:32;;;;;;;3.50;3.30;;;13.30;62.80;;;;;;5052955;28;20188;-53
2021/11/02 01:23:58;;;;;;;3.37;2.67;;;13.20;63.40;;;;;;5053085;28;20272;-52
2021/11/02 01:26:24;;;;;;;3.40;2.57;;;13.10;63.60;;;;;;5052835;28;20579;-49
2021/11/02 01:28:49;;;;;;;3.80;2.93;;;13.00;63.80;;;;;;5053342;28;20268;-48
2021/11/02 01:31:15;;;;;;;6.97;2.60;;;12.80;64.00;;;;;;5052578;28;20227;-52
2021/11/02 01:33:41;;;;;;;2.60;2.40;;;12.80;64.60;;;;;;5052915;28;20189;-48
2021/11/02 01:36:07;;;;;;;3.40;2.70;;;13.00;64.40;;;;;;5052588;28;20223;-49
2021/11/02 01:38:33;;;;;;;5.77;3.20;;;13.10;63.70;;;;;;5050094;28;20428;-48
2021/11/02 01:40:59;;;;;;;7.73;3.13;;;13.10;63.70;;;;;;5049892;28;21004;-51
2021/11/02 01:43:25;;;;;;;3.57;2.80;;;13.00;63.70;;;;;;5052823;28;20224;-48
2021/11/02 01:45:50;;;;;;;4.70;3.17;;;12.80;64.10;;;;;;5052500;28;20242;-53
2021/11/02 01:48:22;;;;;;;3.10;2.63;;;12.90;64.40;;;;;;5053009;28;20636;-48
2021/11/02 01:50:49;;;;;;;3.10;2.80;;;13.00;64.50;;;;;;5052384;28;20266;-50
2021/11/02 01:53:15;;;;;;;3.17;2.87;;;13.10;64.20;;;;;;5052601;28;20437;-49
2021/11/02 01:55:41;;;;;;;7.50;3.20;;;12.90;64.40;;;;;;5052385;28;20431;-52
2021/11/02 01:58:09;;;;;;;3.47;3.17;;;12.90;65.00;;;;;;5052953;28;20430;-51
2021/11/02 02:00:36;;;;;;;2.80;2.50;;;13.00;64.80;;;;;;5052258;28;20448;-48
2021/11/02 02:03:25;;;;;;;2.67;2.47;;;13.20;64.40;;;;;;5052542;28;20427;-50
2021/11/02 02:06:08;;;;;;;3.03;2.83;;;13.20;63.80;;;;;;5050480;28;20980;-48
2021/11/02 02:09:03;;;;;;;3.53;3.20;;;13.40;63.80;;;;;;5052520;28;20435;-48
2021/11/02 02:11:43;;;;;;;3.07;2.60;;;13.60;63.30;;;;;;5051933;28;20483;-48
2021/11/02 02:14:17;;;;;;;3.47;2.93;;;13.70;63.20;;;;;;5052132;28;20790;-52
2021/11/02 02:16:49;;;;;;;2.43;2.23;;;13.80;62.90;;;;;;5052115;28;20456;-48
2021/11/02 02:19:29;;;;;;;3.00;2.77;;;13.90;62.50;;;;;;5052340;28;20470;-52
2021/11/02 02:22:19;;;;;;;2.67;2.47;;;13.90;62.20;;;;;;5050449;28;20431;-48
2021/11/02 02:25:06;;;;;;;2.67;2.47;;;14.00;62.00;;;;;;5051323;28;20902;-48
2021/11/02 02:27:53;;;;;;;2.80;2.30;;;14.00;61.90;;;;;;5052343;28;20435;-52
2021/11/02 02:30:19;;;;;;;3.60;3.30;;;14.00;61.90;;;;;;5051180;28;20478;-51
2021/11/02 02:32:49;;;;;;;2.70;2.50;;;14.00;61.70;;;;;;5048914;28;20564;-48
2021/11/02 02:35:18;;;;;;;3.47;3.00;;;14.10;61.70;;;;;;5051364;28;20841;-49
2021/11/02 02:37:48;;;;;;;5.03;3.90;;;14.10;61.30;;;;;;5052076;28;20424;-50
2021/11/02 02:40:14;;;;;;;5.03;4.03;;;13.80;61.70;;;;;;5048888;28;20776;-52
2021/11/02 02:42:41;;;;;;;3.43;3.07;;;13.40;62.40;;;;;;5051668;28;20434;-52
2021/11/02 02:45:08;;;;;;;2.80;2.60;;;13.50;63.00;;;;;;5051549;28;20431;-53
2021/11/02 02:47:37;;;;;;;3.80;2.80;;;13.20;63.60;;;;;;5051943;28;20423;-53
2021/11/02 02:50:05;;;;;;;4.13;3.03;;;13.20;64.20;;;;;;5051268;28;20478;-52
2021/11/02 02:52:32;;;;;;;6.07;2.70;;;13.30;64.20;;;;;;5051462;28;20447;-52
2021/11/02 02:55:00;;;;;;;2.90;2.40;;;13.50;63.70;;;;;;5051427;28;20542;-52
2021/11/02 02:57:27;;;;;;;3.83;2.90;;;13.60;63.20;;;;;;5050298;28;20438;-51
2021/11/02 02:59:54;;;;;;;2.83;2.63;;;13.70;63.00;;;;;;5048212;28;20442;-52
2021/11/02 03:02:23;;;;;;;13.77;8.13;;;13.60;62.60;;;;;;5051509;28;20470;-54
2021/11/02 03:04:53;;;;;;;4.20;2.70;;;13.40;63.40;;;;;;5050790;28;20530;-50
2021/11/02 03:07:19;;;;;;;3.80;2.40;;;13.30;62.70;;;;;;5051538;28;20485;-51
2021/11/02 03:09:46;;;;;;;2.57;1.80;;;13.20;63.50;;;;;;5049787;28;21100;-50
2021/11/02 03:12:13;;;;;;;3.10;2.03;;;13.30;63.30;;;;;;5051599;28;20986;-51
2021/11/02 03:17:29;;;;;;;1.83;1.73;;;13.60;62.80;;;;;;5051096;28;20422;-50
2021/11/02 03:55:36;;;;;;;3.63;2.00;;;14.10;61.10;;;;;;5057616;28;20892;-49
2021/11/02 03:58:08;;;;;;;1.70;1.60;;;14.20;60.80;;;;;;5057686;28;20438;-49
2021/11/02 04:37:15;;;;;;;2.37;1.50;;;14.40;59.30;;;;;;5057068;28;20470;-48
2021/11/02 04:47:11;;;;;;;2.67;1.60;;;14.40;58.90;;;;;;5051535;28;20424;-49
2021/11/02 05:09:10;;;;;;;1.40;1.30;;;13.80;59.30;;;;;;5053940;28;20968;-48
2021/11/02 05:52:34;;;;;;;3.13;2.03;;;13.30;59.30;;;;;;5044453;28;20827;-48
2021/11/02 06:02:37;;;;;;;2.70;2.40;;;13.40;58.80;;;;;;5052227;28;20197;-48
2021/11/02 06:30:10;;;;;;;2.17;1.93;;;13.20;58.50;;;;;;5051433;28;20504;-52
2021/11/02 06:32:40;;;;;;;3.90;2.40;;;13.30;58.70;;;;;;5050111;28;20442;-53
2021/11/02 06:35:29;;;;;;;3.77;2.17;;;13.60;58.60;;;;;;5051482;28;20495;-52
2021/11/02 06:38:29;;;;;;;2.77;2.03;;;13.70;57.70;;;;;;5052249;28;20513;-52
2021/11/02 06:43:57;;;;;;;2.40;2.20;;;13.90;57.20;;;;;;5051533;28;20510;-52
2021/11/02 06:46:54;;;;;;;2.27;1.90;;;14.00;57.80;;;;;;5051017;28;20431;-52
2021/11/02 07:19:44;;;;;;;3.57;2.53;;;16.90;51.60;;;;;;5051492;28;20562;-52
2021/11/02 08:48:16;;;;;;;2.40;1.90;;;15.20;57.70;;;;;;5054142;28;20947;-48
2021/11/02 08:50:43;;;;;;;1.70;1.60;;;15.50;56.70;;;;;;5053274;28;20487;-48
2021/11/02 08:53:11;;;;;;;2.53;1.40;;;15.40;55.70;;;;;;5053661;28;20439;-48
2021/11/02 08:55:37;;;;;;;4.50;1.93;;;15.50;56.50;;;;;;5053438;28;20427;-48
2021/11/02 08:58:04;;;;;;;1.80;1.57;;;15.60;55.70;;;;;;5053847;28;20422;-50
2021/11/02 09:00:30;;;;;;;2.20;1.80;;;15.90;56.00;;;;;;5053611;28;20446;-49
2021/11/02 09:03:10;;;;;;;1.43;1.33;;;16.00;55.20;;;;;;5053481;28;20423;-50
2021/11/02 09:05:38;;;;;;;2.40;1.80;;;15.60;54.10;;;;;;5053258;28;20933;-48
2021/11/02 09:08:08;;;;;;;5.60;1.90;;;15.50;54.90;;;;;;5053549;28;20506;-49
2021/11/02 09:10:34;;;;;;;2.70;1.87;;;15.40;55.40;;;;;;5052900;28;20970;-50
2021/11/02 09:13:01;;;;;;;2.43;1.47;;;15.60;55.00;;;;;;5041026;28;20433;-48
2021/11/02 09:15:29;;;;;;;1.67;1.57;;;15.80;54.80;;;;;;5053301;28;20431;-49
2021/11/02 09:17:57;;;;;;;2.00;1.80;;;15.80;55.20;;;;;;5053635;28;20930;-50
2021/11/02 09:20:24;;;;;;;5.53;2.00;;;15.90;55.30;;;;;;5052704;28;20466;-51
2021/11/02 09:22:50;;;;;;;4.30;2.00;;;16.00;55.60;;;;;;5053236;28;20466;-49
2021/11/02 09:25:19;;;;;;;1.90;1.53;;;16.10;55.40;;;;;;5052785;28;20471;-49
2021/11/02 09:27:47;;;;;;;2.50;2.13;;;16.10;54.70;;;;;;5053296;28;20522;-49
2021/11/02 09:30:15;;;;;;;2.70;1.70;;;16.00;54.70;;;;;;5052810;28;20990;-49
2021/11/02 09:32:43;;;;;;;2.87;1.80;;;16.00;55.30;;;;;;5052544;28;20462;-49
2021/11/02 09:35:10;;;;;;;6.20;1.80;;;15.90;55.50;;;;;;5052876;28;20473;-49
2021/11/02 09:37:37;;;;;;;4.60;2.00;;;15.90;55.50;;;;;;5053150;28;20438;-49
2021/11/02 09:40:26;;;;;;;2.40;2.20;;;15.80;56.00;;;;;;5051036;28;20435;-51
2021/11/02 09:43:07;;;;;;;2.63;2.30;;;15.70;56.90;;;;;;5052899;28;20487;-48
2021/11/02 09:45:48;;;;;;;4.80;2.20;;;15.70;57.10;;;;;;5052705;28;20771;-48
2021/11/02 09:48:16;;;;;;;5.63;2.30;;;15.60;57.90;;;;;;5052939;28;20456;-49
2021/11/02 09:51:09;;;;;;;3.40;2.50;;;15.60;58.50;;;;;;5052307;28;20845;-49
2021/11/02 09:53:46;;;;;;;5.57;2.53;;;15.40;58.50;;;;;;5042089;28;20522;-49
2021/11/02 09:56:37;;;;;;;2.10;1.90;;;15.40;59.00;;;;;;5052296;28;20851;-48
2021/11/02 09:59:24;;;;;;;3.50;2.50;;;15.40;59.30;;;;;;5052423;28;20474;-51
2021/11/02 10:02:05;;;;;;;3.40;2.67;;;15.40;59.20;;;;;;5051724;28;20423;-52
2021/11/02 10:04:56;;;;;;;2.77;2.57;;;15.40;59.50;;;;;;5052926;28;20530;-52
2021/11/02 10:07:24;;;;;;;3.00;2.43;;;15.50;59.40;;;;;;5050215;28;20537;-52
2021/11/02 10:10:16;;;;;;;2.80;2.60;;;15.50;59.70;;;;;;5051996;28;20949;-53
2021/11/02 10:12:52;;;;;;;4.83;2.60;;;15.50;59.80;;;;;;5041083;28;20423;-51
2021/11/02 10:15:42;;;;;;;3.20;2.90;;;15.40;59.70;;;;;;5052069;28;20427;-49
2021/11/02 10:18:21;;;;;;;4.13;3.10;;;15.30;59.70;;;;;;5052712;28;20505;-52
2021/11/02 10:21:05;;;;;;;3.47;2.77;;;15.30;60.30;;;;;;5051863;28;20498;-52
2021/11/02 10:23:58;;;;;;;2.87;2.67;;;15.40;60.60;;;;;;5052184;28;20501;-52
2021/11/02 10:26:53;;;;;;;4.50;3.03;;;15.10;60.90;;;;;;5051809;28;20450;-51
2021/11/02 10:30:02;;;;;;;3.27;2.57;;;15.20;61.10;;;;;;5052335;28;20510;-51
2021/11/02 10:32:29;;;;;;;3.50;2.60;;;15.30;60.70;;;;;;5050414;28;20565;-52
2021/11/02 10:35:14;;;;;;;2.83;2.37;;;15.40;61.10;;;;;;5051844;28;21107;-52
2021/11/02 10:37:44;;;;;;;4.50;2.80;;;15.40;60.70;;;;;;5052086;28;20907;-52
2021/11/02 10:40:38;;;;;;;3.93;2.30;;;15.40;60.10;;;;;;5051577;28;20434;-52
2021/11/02 10:43:30;;;;;;;3.50;2.50;;;15.40;59.90;;;;;;5050764;28;20478;-51
2021/11/02 10:46:05;;;;;;;7.23;4.90;;;15.40;59.70;;;;;;5051403;28;20442;-52
2021/11/02 10:48:49;;;;;;;4.50;2.83;;;15.40;59.60;;;;;;5051724;28;20430;-51
2021/11/02 10:51:47;;;;;;;5.17;3.57;;;15.50;59.70;;;;;;5051079;28;20487;-52
2021/11/02 10:54:48;;;;;;;6.17;3.80;;;15.40;60.00;;;;;;5051713;28;20424;-53
2021/11/02 10:57:18;;;;;;;4.47;3.47;;;15.40;60.00;;;;;;5009815;28;20503;-52
2021/11/02 10:59:46;;;;;;;8.50;5.00;;;15.50;59.90;;;;;;5042154;28;20522;-51
2021/11/02 11:02:25;;;;;;;4.23;3.47;;;15.40;60.00;;;;;;5051053;28;20517;-51
2021/11/02 11:04:55;;;;;;;5.00;4.50;;;15.50;60.00;;;;;;5050864;28;20437;-53
2021/11/02 11:07:21;;;;;;;4.17;3.77;;;15.60;60.40;;;;;;5051558;28;20439;-51
2021/11/02 11:09:47;;;;;;;4.17;3.37;;;15.60;60.70;;;;;;5051024;28;20793;-51
2021/11/02 11:12:19;;;;;;;15.57;9.00;;;15.70;61.60;;;;;;5040333;28;20220;-51
2021/11/02 11:14:52;;;;;;;8.80;7.80;;;15.60;60.50;;;;;;5050699;28;20800;-52
2021/11/02 11:17:26;;;;;;;8.43;7.57;;;15.50;60.90;;;;;;5051355;28;20423;-52
2021/11/02 11:20:11;;;;;;;13.30;11.17;;;15.40;61.10;;;;;;5050729;28;20486;-50
2021/11/02 11:22:52;;;;;;;6.87;5.67;;;15.40;61.00;;;;;;5051162;28;20443;-53
2021/11/02 11:25:50;;;;;;;5.80;3.83;;;15.20;61.10;;;;;;5050417;28;20434;-52
2021/11/02 11:28:18;;;;;;;4.80;3.17;;;15.00;61.80;;;;;;5049268;28;20550;-52
2021/11/02 11:30:44;;;;;;;4.10;3.57;;;15.10;61.80;;;;;;5050835;28;21016;-52
2021/11/02 11:33:15;;;;;;;4.73;3.77;;;15.30;61.70;;;;;;5050931;28;20419;-51
2021/11/02 11:35:42;;;;;;;4.87;3.73;;;15.40;61.60;;;;;;5050836;28;20481;-50
2021/11/02 11:38:10;;;;;;;3.33;2.87;;;15.50;61.10;;;;;;5051360;28;20435;-49
2021/11/02 11:40:38;;;;;;;3.43;3.13;;;15.50;60.90;;;;;;5050973;28;20419;-52
2021/11/02 11:43:06;;;;;;;6.17;4.93;;;15.50;60.90;;;;;;5050785;28;20427;-51
2021/11/02 11:45:36;;;;;;;6.20;3.60;;;15.40;61.80;;;;;;5050695;28;20423;-52
2021/11/02 11:48:13;;;;;;;4.67;4.27;;;15.40;61.80;;;;;;5051156;28;20466;-51
2021/11/02 11:50:41;;;;;;;4.80;2.53;;;15.40;61.50;;;;;;5050621;28;20485;-52
2021/11/02 11:53:09;;;;;;;3.10;2.80;;;15.30;61.60;;;;;;5049067;28;20431;-51
2021/11/02 11:55:50;;;;;;;2.50;2.30;;;15.30;61.20;;;;;;5053214;28;20427;-50
2021/11/02 11:58:23;;;;;;;3.27;2.70;;;15.30;61.90;;;;;;5053896;28;20813;-52
2021/11/02 12:00:49;;;;;;;2.90;2.60;;;15.30;62.40;;;;;;5054457;28;20443;-52
2021/11/02 12:03:31;;;;;;;4.57;2.97;;;15.50;61.70;;;;;;5054910;28;20546;-49
2021/11/02 12:06:33;;;;;;;4.30;3.00;;;15.60;61.00;;;;;;5054757;28;20470;-49
2021/11/02 12:09:06;;;;;;;2.90;2.27;;;15.60;61.40;;;;;;5055073;28;20430;-51
2021/11/02 12:11:34;;;;;;;2.73;2.00;;;15.70;60.80;;;;;;5046669;28;20895;-50
2021/11/02 12:14:18;;;;;;;1.67;1.57;;;15.70;60.70;;;;;;5052378;28;20419;-48
2021/11/02 12:16:46;;;;;;;2.47;1.70;;;15.70;60.00;;;;;;5054384;28;20419;-52
2021/11/02 12:19:15;;;;;;;2.13;1.50;;;15.60;60.20;;;;;;5052992;28;20543;-51
2021/11/02 12:21:43;;;;;;;1.67;1.57;;;15.50;60.20;;;;;;5053640;28;20922;-48
2021/11/02 12:24:15;;;;;;;2.80;1.57;;;15.30;61.10;;;;;;5054477;28;20466;-49
2021/11/02 12:26:48;;;;;;;3.37;1.93;;;15.50;61.50;;;;;;5053973;28;20427;-53
2021/11/02 12:29:23;;;;;;;2.47;2.27;;;15.60;60.40;;;;;;5043910;28;20459;-53
2021/11/02 12:31:59;;;;;;;2.10;1.53;;;15.80;59.90;;;;;;5054229;28;20496;-47
2021/11/02 12:34:28;;;;;;;2.53;1.50;;;15.70;59.70;;;;;;5074145;28;20430;-52
2021/11/02 12:36:58;;;;;;;1.37;1.27;;;15.70;59.40;;;;;;5073676;28;20429;-52
2021/11/02 12:39:28;;;;;;;1.07;1.00;;;15.50;59.30;;;;;;5074384;28;20438;-51
2021/11/02 12:41:57;;;;;;;1.33;1.03;;;15.20;59.40;;;;;;5073246;28;20429;-47
2021/11/02 12:44:37;;;;;;;1.10;1.00;;;15.00;59.70;;;;;;5073897;28;20807;-50
2021/11/02 12:47:06;;;;;;;1.70;1.10;;;14.90;60.40;;;;;;5072278;28;20462;-51
2021/11/02 12:49:55;;;;;;;1.97;1.00;;;14.90;61.20;;;;;;5074232;28;20892;-50
2021/11/02 12:52:33;;;;;;;0.97;0.70;;;14.80;59.50;;;;;;5046063;28;20961;-51
2021/11/02 12:55:06;;;;;;;0.70;0.70;;;14.70;59.90;;;;;;5053786;28;20426;-51
2021/11/02 12:57:38;;;;;;;1.00;0.87;;;14.40;60.00;;;;;;5054048;28;20861;-51
2021/11/02 13:00:26;;;;;;;1.00;0.87;;;14.30;60.40;;;;;;5053080;28;20518;-48
2021/11/02 13:02:58;;;;;;;1.23;0.90;;;14.50;61.20;;;;;;5053448;28;20434;-53
2021/11/02 13:05:26;;;;;;;1.13;0.80;;;14.60;60.60;;;;;;5053036;28;20423;-49
2021/11/02 13:07:56;;;;;;;0.80;0.80;;;14.70;60.60;;;;;;5052938;28;20423;-52
2021/11/02 13:10:23;;;;;;;1.43;0.80;;;14.70;59.60;;;;;;5053048;28;20523;-48
2021/11/02 13:12:51;;;;;;;2.33;0.77;;;14.60;59.40;;;;;;5051743;28;20950;-51
2021/11/02 13:15:17;;;;;;;1.00;0.70;;;14.60;59.90;;;;;;5053004;28;20189;-51
2021/11/02 13:17:49;;;;;;;0.90;0.90;;;14.60;59.20;;;;;;5053550;28;20462;-52
2021/11/02 13:20:36;;;;;;;0.70;0.70;;;14.50;58.90;;;;;;5052923;28;20529;-52
2021/11/02 13:23:03;;;;;;;0.80;0.80;;;14.50;59.20;;;;;;5052973;28;20442;-52
2021/11/02 13:25:40;;;;;;;2.40;0.90;;;14.60;59.20;;;;;;5053042;28;20439;-49
2021/11/02 13:28:08;;;;;;;0.93;0.73;;;15.00;59.60;;;;;;5053737;28;20441;-48
2021/11/02 13:30:39;;;;;;;0.77;0.77;;;15.00;58.10;;;;;;5039432;28;20479;-52
2021/11/02 13:33:20;;;;;;;0.70;0.70;;;15.10;57.90;;;;;;5053109;28;20447;-50
2021/11/02 13:36:01;;;;;;;1.43;0.80;;;15.10;57.70;;;;;;5052806;28;20521;-49
2021/11/02 13:38:32;;;;;;;1.87;0.70;;;14.90;57.30;;;;;;5053576;28;20430;-49
2021/11/02 13:41:25;;;;;;;1.67;1.23;;;14.80;56.90;;;;;;5050919;28;20435;-52
2021/11/02 13:43:56;;;;;;;0.70;0.70;;;14.80;57.50;;;;;;5053442;28;20876;-52
2021/11/02 13:46:25;;;;;;;0.63;0.63;;;15.00;57.60;;;;;;5052560;28;20427;-51
2021/11/02 13:48:53;;;;;;;3.90;1.63;;;14.90;57.10;;;;;;5052888;28;20442;-53
2021/11/02 13:51:22;;;;;;;0.83;0.83;;;15.10;57.20;;;;;;5052098;28;20506;-49
2021/11/02 13:53:48;;;;;;;1.73;1.00;;;15.30;56.90;;;;;;5053225;28;20427;-51
2021/11/02 13:56:18;;;;;;;0.63;0.63;;;15.30;56.90;;;;;;5052247;28;20423;-53
2021/11/02 13:58:44;;;;;;;1.00;0.80;;;15.50;56.60;;;;;;5052797;28;20788;-52
2021/11/02 14:01:31;;;;;;;0.90;0.90;;;15.60;56.30;;;;;;5052391;28;20434;-52
2021/11/02 14:03:59;;;;;;;2.83;0.80;;;15.70;56.20;;;;;;5047579;28;20435;-51
2021/11/02 14:06:27;;;;;;;0.90;0.60;;;15.20;55.10;;;;;;5050822;28;20566;-49
2021/11/02 14:08:54;;;;;;;2.03;0.70;;;15.10;55.60;;;;;;5052380;28;20443;-51
2021/11/02 14:11:35;;;;;;;0.83;0.77;;;15.30;55.90;;;;;;5051661;28;20988;-51
2021/11/02 14:14:02;;;;;;;0.70;0.70;;;15.40;55.70;;;;;;5052708;28;20465;-51
2021/11/02 14:16:37;;;;;;;0.87;0.87;;;15.20;55.20;;;;;;5052141;28;20498;-52
2021/11/02 14:19:04;;;;;;;0.63;0.63;;;15.30;55.80;;;;;;5052275;28;20470;-52
2021/11/02 14:21:47;;;;;;;2.37;0.70;;;15.30;55.60;;;;;;5051554;28;20431;-52
2021/11/02 14:24:13;;;;;;;0.80;0.80;;;15.20;55.10;;;;;;5052416;28;20446;-49
2021/11/02 14:26:47;;;;;;;0.70;0.70;;;15.20;55.20;;;;;;5051525;28;20427;-52
2021/11/02 14:29:13;;;;;;;0.87;0.60;;;15.30;55.50;;;;;;5044245;28;20230;-49
2021/11/02 14:31:38;;;;;;;1.10;0.73;;;15.40;55.40;;;;;;5046470;28;20627;-52
2021/11/02 14:34:10;;;;;;;1.20;1.10;;;15.50;55.10;;;;;;5050669;28;20427;-48
2021/11/02 14:36:44;;;;;;;0.93;0.90;;;15.40;54.90;;;;;;5051404;28;20184;-49
2021/11/02 14:39:13;;;;;;;0.70;0.70;;;15.30;54.70;;;;;;5052291;28;20439;-52
2021/11/02 14:41:49;;;;;;;1.33;0.80;;;15.20;54.40;;;;;;5050102;28;20449;-51
2021/11/02 14:44:18;;;;;;;1.07;0.80;;;15.30;54.60;;;;;;5052223;28;20445;-52
2021/11/02 14:46:48;;;;;;;2.10;1.00;;;15.30;54.60;;;;;;5051111;28;20590;-52
2021/11/02 14:49:36;;;;;;;1.10;0.70;;;15.40;54.70;;;;;;5052118;28;20435;-48
2021/11/02 14:52:09;;;;;;;0.83;0.63;;;15.40;54.30;;;;;;5035365;28;20978;-49
2021/11/02 14:54:43;;;;;;;0.80;0.80;;;15.20;53.70;;;;;;5051841;28;20431;-48
2021/11/02 14:57:18;;;;;;;0.70;0.70;;;15.30;54.40;;;;;;5051881;28;20495;-49
2021/11/02 14:59:51;;;;;;;0.90;0.73;;;15.30;54.60;;;;;;5049617;28;20454;-48
2021/11/02 15:02:16;;;;;;;0.90;0.90;;;15.20;53.90;;;;;;5051289;28;20427;-49
2021/11/02 15:04:44;;;;;;;0.80;0.80;;;15.00;54.10;;;;;;5050928;28;20481;-49
2021/11/02 15:07:12;;;;;;;1.10;1.00;;;15.00;54.50;;;;;;5051740;28;20200;-50
2021/11/02 15:09:38;;;;;;;2.00;0.70;;;15.00;54.80;;;;;;5051607;28;20439;-48
2021/11/02 15:12:06;;;;;;;0.90;0.73;;;15.00;54.60;;;;;;5050816;28;21118;-50
2021/11/02 15:14:35;;;;;;;1.07;0.90;;;14.90;54.80;;;;;;5051575;28;20427;-49
2021/11/02 15:17:07;;;;;;;0.90;0.70;;;14.90;55.30;;;;;;5052174;28;20455;-50
2021/11/02 15:19:35;;;;;;;1.73;0.70;;;14.90;55.30;;;;;;5071791;28;20469;-48
2021/11/02 15:22:11;;;;;;;0.70;0.70;;;14.90;55.50;;;;;;5070655;28;20504;-48
2021/11/02 15:24:40;;;;;;;1.10;1.00;;;15.00;55.20;;;;;;5071466;28;20475;-51
2021/11/02 15:27:15;;;;;;;0.80;0.80;;;15.00;55.30;;;;;;5069188;28;20467;-48
2021/11/02 15:29:50;;;;;;;0.90;0.80;;;14.80;55.10;;;;;;5046202;28;20792;-50
2021/11/02 15:32:17;;;;;;;0.87;0.87;;;14.60;55.60;;;;;;5044764;28;20529;-48
2021/11/02 15:34:49;;;;;;;0.90;0.80;;;14.40;56.20;;;;;;5070751;28;20465;-49
2021/11/02 15:37:32;;;;;;;0.93;0.70;;;14.50;56.10;;;;;;5071411;28;20433;-51
2021/11/02 15:40:01;;;;;;;1.07;0.80;;;14.60;55.70;;;;;;5069601;28;20499;-49
2021/11/02 15:42:33;;;;;;;3.13;0.90;;;14.50;55.40;;;;;;5071046;28;20425;-48
2021/11/02 15:45:10;;;;;;;3.37;1.00;;;14.30;55.40;;;;;;5070482;28;20441;-52
2021/11/02 15:47:43;;;;;;;0.90;0.83;;;14.20;55.60;;;;;;5071424;28;20545;-53
2021/11/02 15:50:14;;;;;;;0.80;0.80;;;14.10;55.70;;;;;;5067576;28;20883;-47
2021/11/02 15:52:39;;;;;;;1.37;1.27;;;14.20;55.60;;;;;;5048884;28;20813;-52
2021/11/02 15:55:10;;;;;;;1.10;1.10;;;14.10;55.60;;;;;;5050604;28;20423;-48
2021/11/02 15:57:48;;;;;;;1.10;0.90;;;14.10;56.10;;;;;;5051026;28;20184;-48
2021/11/02 16:00:15;;;;;;;0.90;0.90;;;14.10;56.20;;;;;;5050484;28;20438;-50
2021/11/02 16:02:44;;;;;;;1.23;1.13;;;13.90;55.90;;;;;;5051012;28;20435;-48
2021/11/02 16:05:11;;;;;;;2.17;1.00;;;13.60;57.00;;;;;;5050454;28;20500;-48
2021/11/02 16:07:37;;;;;;;1.00;0.90;;;13.70;57.40;;;;;;5051037;28;20510;-50
2021/11/02 16:10:05;;;;;;;0.73;0.73;;;13.70;57.30;;;;;;5050422;28;20558;-48
2021/11/02 16:12:35;;;;;;;1.73;1.20;;;13.90;57.20;;;;;;5050564;28;21130;-53
2021/11/02 16:15:14;;;;;;;1.07;0.97;;;13.60;57.30;;;;;;5050627;28;20430;-50
2021/11/02 16:17:48;;;;;;;1.50;1.03;;;13.40;58.10;;;;;;5051007;28;20435;-48
2021/11/02 16:20:34;;;;;;;1.83;1.20;;;13.60;58.00;;;;;;5048757;28;20486;-49
2021/11/02 16:23:00;;;;;;;1.87;0.97;;;13.70;57.70;;;;;;5050084;28;20512;-49
2021/11/02 16:25:37;;;;;;;1.10;1.00;;;13.80;57.40;;;;;;5050567;28;20497;-49
2021/11/02 16:28:04;;;;;;;0.73;0.73;;;13.90;57.00;;;;;;5050886;28;20204;-48
2021/11/02 16:30:34;;;;;;;1.20;0.73;;;13.70;56.90;;;;;;5037229;28;20989;-49
2021/11/02 16:33:00;;;;;;;0.80;0.80;;;13.80;57.10;;;;;;5050401;28;20439;-48
2021/11/02 16:35:38;;;;;;;2.03;0.87;;;13.70;56.80;;;;;;5048850;28;20442;-49
2021/11/02 16:38:37;;;;;;;0.93;0.90;;;13.70;57.30;;;;;;5050728;28;20434;-48
2021/11/02 16:41:17;;;;;;;1.30;0.93;;;13.90;57.10;;;;;;5027578;28;20490;-48
2021/11/02 16:43:49;;;;;;;1.40;0.90;;;14.10;56.70;;;;;;5054145;28;20518;-48
2021/11/02 16:46:27;;;;;;;1.40;1.10;;;14.20;56.30;;;;;;5051926;28;20466;-48
2021/11/02 16:49:00;;;;;;;1.73;1.40;;;14.10;56.40;;;;;;5054291;28;20427;-48
2021/11/02 16:51:42;;;;;;;1.50;1.40;;;14.20;56.60;;;;;;5053157;28;20482;-48
2021/11/02 16:54:09;;;;;;;1.70;1.60;;;14.40;56.30;;;;;;5054099;28;20439;-48
2021/11/02 16:56:35;;;;;;;4.30;1.10;;;14.60;55.90;;;;;;5053540;28;20438;-48
2021/11/02 16:59:00;;;;;;;3.23;2.43;;;14.60;55.90;;;;;;5054021;28;20423;-49
2021/11/02 17:01:30;;;;;;;2.00;1.50;;;14.60;55.90;;;;;;5053006;28;20675;-49
2021/11/02 17:04:07;;;;;;;1.37;1.27;;;14.50;55.90;;;;;;5054148;28;20563;-48
2021/11/02 17:06:33;;;;;;;1.53;1.43;;;14.60;56.20;;;;;;5053388;28;20429;-48
2021/11/02 17:09:01;;;;;;;1.67;1.57;;;14.60;56.70;;;;;;5053769;28;20423;-49
2021/11/02 17:11:27;;;;;;;1.30;1.20;;;14.70;56.70;;;;;;5052955;28;20220;-48
2021/11/02 17:13:54;;;;;;;1.10;1.00;;;14.70;56.80;;;;;;5052105;28;20519;-49
2021/11/02 17:16:24;;;;;;;1.33;1.23;;;14.80;57.20;;;;;;5052959;28;20438;-49
2021/11/02 17:19:00;;;;;;;1.23;1.13;;;14.80;57.20;;;;;;5053529;28;20469;-48
2021/11/02 17:21:31;;;;;;;1.30;1.20;;;14.80;57.20;;;;;;5052827;28;20423;-49
2021/11/02 17:23:59;;;;;;;1.23;1.13;;;14.60;57.20;;;;;;5053631;28;20789;-48
2021/11/02 17:26:26;;;;;;;1.37;1.13;;;14.70;57.20;;;;;;5052980;28;20420;-48
2021/11/02 17:28:53;;;;;;;1.30;1.07;;;14.80;57.20;;;;;;5048059;28;20493;-50
2021/11/02 17:31:23;;;;;;;1.10;0.80;;;14.80;57.20;;;;;;5045718;28;20852;-52
2021/11/02 17:33:49;;;;;;;2.07;0.93;;;14.80;57.30;;;;;;5053389;28;20435;-53
2021/11/02 17:36:17;;;;;;;1.17;1.07;;;14.80;57.30;;;;;;5052820;28;20505;-53
2021/11/02 17:38:47;;;;;;;1.57;0.90;;;14.80;57.50;;;;;;5053540;28;20547;-52
2021/11/02 17:41:16;;;;;;;1.50;1.10;;;14.80;57.50;;;;;;5050826;28;20431;-53
2021/11/02 17:43:46;;;;;;;2.33;1.10;;;14.80;58.00;;;;;;5053376;28;20480;-52
2021/11/02 17:46:13;;;;;;;2.43;1.50;;;14.80;57.20;;;;;;5052178;28;20443;-53
2021/11/02 17:48:39;;;;;;;1.57;1.30;;;14.90;57.10;;;;;;5053281;28;20415;-52
2021/11/02 17:51:06;;;;;;;3.60;2.60;;;14.90;56.80;;;;;;5051988;28;20493;-53
2021/11/02 17:53:34;;;;;;;6.63;4.83;;;14.90;56.80;;;;;;5052924;28;20480;-53
2021/11/02 17:56:02;;;;;;;8.80;6.63;;;14.80;56.90;;;;;;5052389;28;20938;-52
2021/11/02 17:58:28;;;;;;;6.77;4.90;;;14.90;57.10;;;;;;5052785;28;20435;-51
2021/11/02 18:00:56;;;;;;;3.80;2.50;;;14.90;57.20;;;;;;5052238;28;20439;-52
2021/11/02 18:03:23;;;;;;;2.70;2.50;;;14.90;57.10;;;;;;5052753;28;20435;-52
2021/11/02 18:05:51;;;;;;;3.30;2.43;;;14.80;57.20;;;;;;5051118;28;20434;-53